createdAt,value
2018-09-05T00:02:04.513Z,19.62
2018-09-05T00:04:34.023Z,19.70
2018-09-05T00:07:03.951Z,19.69
2018-09-05T00:09:33.421Z,19.56
2018-09-05T00:12:03.502Z,19.44
2018-09-05T00:14:33.079Z,19.51
2018-09-05T00:17:03.206Z,19.58
2018-09-05T00:19:32.688Z,19.61
2018-09-05T00:22:02.533Z,19.54
2018-09-05T00:24:32.196Z,19.48
2018-09-05T00:27:02.083Z,19.47
2018-09-05T00:29:31.511Z,19.41
2018-09-05T00:32:01.287Z,19.51
2018-09-05T00:34:30.983Z,19.56
2018-09-05T00:37:00.424Z,19.59
2018-09-05T00:39:30.355Z,19.53
2018-09-05T00:41:59.871Z,19.54
2018-09-05T00:44:29.365Z,19.58
2018-09-05T00:46:59.102Z,19.55
2018-09-05T00:49:29.179Z,19.47
2018-09-05T00:51:58.695Z,19.33
2018-09-05T00:54:27.924Z,19.31
2018-09-05T00:56:57.821Z,19.40
2018-09-05T00:59:27.235Z,19.37
2018-09-05T01:01:57.352Z,19.33
2018-09-05T01:04:26.815Z,19.28
2018-09-05T01:06:56.466Z,19.16
2018-09-05T01:09:26.148Z,19.25
2018-09-05T01:11:56.108Z,19.32
2018-09-05T01:14:25.746Z,19.37
2018-09-05T01:16:55.634Z,19.36
2018-09-05T01:19:25.394Z,19.27
2018-09-05T01:21:54.894Z,19.34
2018-09-05T01:24:24.515Z,19.24
2018-09-05T01:26:54.007Z,19.29
2018-09-05T01:29:23.306Z,19.30
2018-09-05T01:31:52.812Z,19.36
2018-09-05T01:34:22.363Z,19.15
2018-09-05T01:36:51.818Z,18.91
2018-09-05T01:39:21.663Z,18.97
2018-09-05T01:41:51.054Z,19.21
2018-09-05T01:44:20.618Z,19.27
2018-09-05T01:46:50.227Z,19.12
2018-09-05T01:49:19.975Z,18.97
2018-09-05T01:51:53.327Z,18.87
2018-09-05T01:54:23.207Z,18.91
2018-09-05T01:56:53.415Z,19.06
2018-09-05T01:59:23.326Z,19.07
2018-09-05T02:01:52.998Z,19.09
2018-09-05T02:04:22.575Z,19.04
2018-09-05T02:06:52.889Z,18.84
2018-09-05T02:09:22.399Z,18.76
2018-09-05T02:11:51.996Z,18.76
2018-09-05T02:14:21.398Z,18.86
2018-09-05T02:16:51.722Z,18.90
2018-09-05T02:19:21.974Z,18.81
2018-09-05T02:21:51.544Z,18.71
2018-09-05T02:24:21.493Z,18.65
2018-09-05T02:26:51.501Z,18.68
2018-09-05T02:29:21.235Z,18.72
2018-09-05T02:31:50.869Z,18.68
2018-09-05T02:34:20.294Z,18.69
2018-09-05T02:36:49.761Z,18.71
2018-09-05T02:39:19.686Z,18.61
2018-09-05T02:41:48.891Z,18.52
2018-09-05T02:44:24.166Z,18.62
2018-09-05T02:46:53.800Z,18.61
2018-09-05T02:49:23.220Z,18.61
2018-09-05T02:51:52.795Z,18.45
2018-09-05T02:54:22.235Z,18.32
2018-09-05T02:56:51.978Z,18.33
2018-09-05T02:59:21.907Z,18.42
2018-09-05T03:01:51.246Z,18.46
2018-09-05T03:04:20.661Z,18.48
2018-09-05T03:06:50.243Z,18.49
2018-09-05T03:09:20.118Z,18.42
2018-09-05T03:11:49.614Z,18.37
2018-09-05T03:14:19.698Z,18.45
2018-09-05T03:16:49.385Z,18.26
2018-09-05T03:19:19.326Z,18.32
2018-09-05T03:21:49.054Z,18.20
2018-09-05T03:24:18.920Z,18.15
2018-09-05T03:26:48.255Z,18.16
2018-09-05T03:29:17.999Z,18.22
2018-09-05T03:31:47.497Z,18.19
2018-09-05T03:34:16.999Z,18.19
2018-09-05T03:36:46.446Z,18.09
2018-09-05T03:39:16.683Z,18.00
2018-09-05T03:41:46.146Z,17.88
2018-09-05T03:44:15.438Z,18.10
2018-09-05T03:46:45.102Z,17.95
2018-09-05T03:49:14.635Z,17.95
2018-09-05T03:51:44.131Z,17.98
2018-09-05T03:54:13.694Z,17.90
2018-09-05T03:56:43.126Z,18.05
2018-09-05T03:59:12.851Z,17.87
2018-09-05T04:01:42.397Z,17.76
2018-09-05T04:04:11.881Z,17.76
2018-09-05T04:06:41.381Z,17.70
2018-09-05T04:09:10.904Z,17.61
2018-09-05T04:11:40.377Z,17.57
2018-09-05T04:14:10.498Z,17.75
2018-09-05T04:16:39.755Z,17.67
2018-09-05T04:19:09.577Z,17.68
2018-09-05T04:21:39.074Z,17.63
2018-09-05T04:24:08.537Z,17.60
2018-09-05T04:26:37.862Z,17.47
2018-09-05T04:29:07.339Z,17.45
2018-09-05T04:31:36.837Z,17.47
2018-09-05T04:34:06.106Z,17.53
2018-09-05T04:36:35.549Z,17.60
2018-09-05T04:39:07.447Z,17.57
2018-09-05T04:41:37.099Z,17.53
2018-09-05T04:44:07.351Z,17.57
2018-09-05T04:46:36.928Z,17.49
2018-09-05T04:49:06.443Z,17.45
2018-09-05T04:51:36.506Z,17.32
2018-09-05T04:54:06.715Z,17.37
2018-09-05T04:56:36.636Z,17.35
2018-09-05T04:59:06.341Z,17.36
2018-09-05T05:01:36.653Z,17.31
2018-09-05T05:04:06.310Z,17.35
2018-09-05T05:06:35.889Z,17.30
2018-09-05T05:09:08.773Z,17.27
2018-09-05T05:11:39.175Z,17.36
2018-09-05T05:14:09.064Z,17.37
2018-09-05T05:16:38.961Z,17.54
2018-09-05T05:19:08.446Z,17.53
2018-09-05T05:21:37.986Z,17.57
2018-09-05T05:24:07.466Z,17.53
2018-09-05T05:26:37.050Z,17.54
2018-09-05T05:29:06.518Z,17.65
2018-09-05T05:31:36.003Z,17.80
2018-09-05T05:34:05.706Z,17.91
2018-09-05T05:36:35.218Z,18.01
2018-09-05T05:39:07.415Z,18.03
2018-09-05T05:41:37.254Z,18.02
2018-09-05T05:44:06.974Z,18.13
2018-09-05T05:46:36.858Z,18.18
2018-09-05T05:49:06.102Z,18.24
2018-09-05T05:51:35.522Z,18.35
2018-09-05T05:54:05.056Z,18.36
2018-09-05T05:56:34.527Z,18.37
2018-09-05T05:59:04.494Z,18.43
2018-09-05T06:01:33.984Z,18.29
2018-09-05T06:04:03.733Z,18.63
2018-09-05T06:06:33.979Z,18.67
2018-09-05T06:09:05.175Z,18.60
2018-09-05T06:11:35.134Z,18.68
2018-09-05T06:14:04.609Z,18.86
2018-09-05T06:16:34.700Z,18.74
2018-09-05T06:19:04.437Z,18.95
2018-09-05T06:21:34.036Z,18.97
2018-09-05T06:24:03.495Z,19.00
2018-09-05T06:26:33.886Z,19.20
2018-09-05T06:29:03.178Z,19.28
2018-09-05T06:31:33.345Z,19.30
2018-09-05T06:34:03.135Z,19.44
2018-09-05T06:36:32.546Z,19.43
2018-09-05T06:39:02.381Z,19.49
2018-09-05T06:41:32.658Z,19.53
2018-09-05T06:44:02.951Z,19.55
2018-09-05T06:46:32.623Z,19.58
2018-09-05T06:49:02.360Z,19.63
2018-09-05T06:51:31.685Z,19.68
2018-09-05T06:54:01.773Z,19.70
2018-09-05T06:56:31.924Z,19.77
2018-09-05T06:59:01.382Z,19.87
2018-09-05T07:01:31.113Z,19.93
2018-09-05T07:04:00.681Z,19.93
2018-09-05T07:06:30.091Z,19.95
2018-09-05T07:08:59.656Z,20.10
2018-09-05T07:11:28.960Z,20.12
2018-09-05T07:13:58.585Z,20.26
2018-09-05T07:16:28.559Z,20.33
2018-09-05T07:18:58.091Z,20.40
2018-09-05T07:21:27.923Z,20.46
2018-09-05T07:23:58.630Z,20.55
2018-09-05T07:26:28.159Z,20.67
2018-09-05T07:28:57.776Z,20.70
2018-09-05T07:31:27.235Z,20.85
2018-09-05T07:33:57.127Z,21.01
2018-09-05T07:36:26.640Z,21.16
2018-09-05T07:38:56.161Z,21.34
2018-09-05T07:41:25.815Z,21.41
2018-09-05T07:43:55.576Z,20.93
2018-09-05T07:46:25.024Z,21.31
2018-09-05T07:48:54.586Z,21.64
2018-09-05T07:51:24.496Z,21.94
2018-09-05T07:53:53.957Z,22.33
2018-09-05T07:56:24.139Z,22.85
2018-09-05T07:58:53.848Z,22.48
2018-09-05T08:01:23.870Z,23.36
2018-09-05T08:03:53.947Z,23.54
2018-09-05T08:06:23.940Z,23.89
2018-09-05T08:08:53.460Z,23.55
2018-09-05T08:11:22.945Z,24.59
2018-09-05T08:13:52.481Z,24.88
2018-09-05T08:16:22.780Z,25.04
2018-09-05T08:18:52.884Z,25.73
2018-09-05T08:21:22.238Z,25.83
2018-09-05T08:23:52.086Z,25.87
2018-09-05T08:26:21.626Z,25.51
2018-09-05T08:28:51.513Z,25.86
2018-09-05T08:31:21.310Z,26.36
2018-09-05T08:33:50.796Z,27.55
2018-09-05T08:36:20.654Z,28.22
2018-09-05T08:38:50.899Z,28.83
2018-09-05T08:41:20.779Z,28.06
2018-09-05T08:43:50.249Z,28.11
2018-09-05T08:46:20.274Z,28.31
2018-09-05T08:48:49.804Z,27.74
2018-09-05T08:51:20.189Z,27.29
2018-09-05T08:53:50.787Z,28.00
2018-09-05T08:56:20.967Z,25.97
2018-09-05T08:58:50.240Z,27.31
2018-09-05T09:01:19.814Z,26.90
2018-09-05T09:03:49.627Z,27.64
2018-09-05T09:06:19.026Z,27.46
2018-09-05T09:08:48.766Z,27.83
2018-09-05T09:11:18.280Z,27.77
2018-09-05T09:13:48.043Z,28.09
2018-09-05T09:16:17.294Z,28.35
2018-09-05T09:18:47.339Z,28.36
2018-09-05T09:21:17.278Z,28.82
2018-09-05T09:23:47.521Z,29.09
2018-09-05T09:26:17.606Z,29.44
2018-09-05T09:28:47.066Z,30.19
2018-09-05T09:31:16.573Z,29.92
2018-09-05T09:33:46.351Z,30.50
2018-09-05T09:36:15.594Z,30.41
2018-09-05T09:38:45.122Z,30.61
2018-09-05T09:41:14.422Z,29.84
2018-09-05T09:43:44.326Z,30.83
2018-09-05T09:46:14.294Z,29.84
2018-09-05T09:48:43.892Z,30.08
2018-09-05T09:51:13.639Z,28.66
2018-09-05T09:53:43.807Z,28.92
2018-09-05T09:56:13.252Z,29.33
2018-09-05T09:58:42.741Z,29.15
2018-09-05T10:03:21.051Z,29.18
2018-09-05T10:05:55.573Z,28.64
2018-09-05T10:10:37.833Z,28.67
2018-09-05T10:13:14.107Z,27.40
2018-09-05T10:15:48.922Z,26.48
2018-09-05T10:18:23.950Z,26.64
2018-09-05T10:20:54.950Z,27.16
2018-09-05T10:23:24.737Z,27.78
2018-09-05T10:25:54.838Z,27.66
2018-09-05T10:28:24.336Z,28.08
2018-09-05T10:30:53.948Z,27.76
2018-09-05T10:33:23.297Z,27.63
2018-09-05T10:35:52.814Z,27.62
2018-09-05T10:38:22.339Z,27.49
2018-09-05T10:40:51.837Z,27.45
2018-09-05T10:43:21.283Z,27.76
2018-09-05T10:45:51.034Z,28.11
2018-09-05T10:48:20.756Z,28.13
2018-09-05T10:50:50.267Z,28.13
2018-09-05T10:53:20.546Z,27.99
2018-09-05T10:55:50.290Z,28.38
2018-09-05T10:58:19.823Z,28.71
2018-09-05T11:00:51.131Z,28.16
2018-09-05T11:03:20.659Z,28.28
2018-09-05T11:05:50.139Z,28.82
2018-09-05T11:08:19.671Z,28.00
2018-09-05T11:10:49.211Z,28.48
2018-09-05T11:13:18.941Z,29.03
2018-09-05T11:15:48.363Z,28.43
2018-09-05T11:18:17.882Z,28.87
2018-09-05T11:20:47.394Z,29.34
2018-09-05T11:23:17.512Z,29.50
2018-09-05T11:25:47.199Z,29.38
2018-09-05T11:28:16.950Z,30.10
2018-09-05T11:30:46.605Z,30.28
2018-09-05T11:33:16.135Z,29.37
2018-09-05T11:35:45.612Z,30.22
2018-09-05T11:38:15.375Z,30.63
2018-09-05T11:40:45.509Z,30.39
2018-09-05T11:43:15.235Z,31.00
2018-09-05T11:45:44.692Z,31.45
2018-09-05T11:48:14.212Z,32.13
2018-09-05T11:50:43.675Z,32.80
2018-09-05T11:53:13.545Z,33.11
2018-09-05T11:55:42.908Z,33.65
2018-09-05T11:58:12.395Z,33.74
2018-09-05T12:00:43.030Z,32.77
2018-09-05T12:03:12.635Z,31.89
2018-09-05T12:05:42.766Z,31.40
2018-09-05T12:08:12.285Z,31.40
2018-09-05T12:10:41.976Z,31.71
2018-09-05T12:13:11.480Z,31.82
2018-09-05T12:15:41.401Z,32.53
2018-09-05T12:18:10.937Z,33.48
2018-09-05T12:20:41.051Z,31.59
2018-09-05T12:23:10.316Z,31.74
2018-09-05T12:25:39.883Z,31.89
2018-09-05T12:28:09.923Z,31.07
2018-09-05T12:30:39.484Z,31.48
2018-09-05T12:33:08.944Z,31.29
2018-09-05T12:35:38.438Z,30.62
2018-09-05T12:38:08.604Z,30.90
2018-09-05T12:40:37.954Z,29.62
2018-09-05T12:43:07.349Z,30.11
2018-09-05T12:45:37.171Z,30.49
2018-09-05T12:48:07.012Z,30.54
2018-09-05T12:50:36.742Z,30.20
2018-09-05T12:53:07.871Z,29.95
2018-09-05T12:55:37.642Z,29.16
2018-09-05T12:58:07.799Z,29.49
2018-09-05T13:00:37.454Z,29.26
2018-09-05T13:03:08.108Z,29.56
2018-09-05T13:05:37.912Z,29.94
2018-09-05T13:08:08.962Z,29.55
2018-09-05T13:10:39.405Z,29.64
2018-09-05T13:13:09.391Z,29.65
2018-09-05T13:15:39.613Z,29.53
2018-09-05T13:18:11.757Z,29.70
2018-09-05T13:20:41.853Z,29.79
2018-09-05T13:23:12.485Z,29.81
2018-09-05T13:25:42.245Z,29.86
2018-09-05T13:28:18.358Z,29.38
2018-09-05T13:30:54.624Z,29.28
2018-09-05T13:33:24.542Z,29.42
2018-09-05T13:35:54.448Z,29.82
2018-09-05T13:38:24.932Z,30.26
2018-09-05T13:40:55.264Z,30.23
2018-09-05T13:43:25.585Z,30.41
2018-09-05T13:45:57.081Z,30.31
2018-09-05T13:48:28.301Z,30.23
2018-09-05T13:50:58.916Z,30.22
2018-09-05T13:53:29.719Z,30.24
2018-09-05T13:55:59.619Z,30.07
2018-09-05T13:58:30.055Z,30.14
2018-09-05T14:01:00.235Z,30.25
2018-09-05T14:03:31.318Z,30.22
2018-09-05T14:06:01.586Z,29.23
2018-09-05T14:08:33.700Z,29.36
2018-09-05T14:11:04.289Z,29.41
2018-09-05T14:13:35.749Z,29.79
2018-09-05T14:16:05.284Z,29.91
2018-09-05T14:18:34.846Z,30.03
2018-09-05T14:21:04.813Z,30.16
2018-09-05T14:23:35.343Z,29.73
2018-09-05T14:26:06.898Z,30.10
2018-09-05T14:28:38.194Z,30.08
2018-09-05T14:31:09.590Z,29.97
2018-09-05T14:33:40.913Z,29.93
2018-09-05T14:36:13.072Z,29.72
2018-09-05T14:38:44.259Z,29.79
2018-09-05T14:41:18.733Z,29.88
2018-09-05T14:43:50.182Z,29.88
2018-09-05T14:46:20.781Z,29.81
2018-09-05T14:48:51.494Z,29.82
2018-09-05T14:51:22.993Z,29.68
2018-09-05T14:53:53.287Z,29.57
2018-09-05T14:56:25.487Z,29.53
2018-09-05T14:58:56.437Z,29.32
2018-09-05T15:01:25.992Z,29.31
2018-09-05T15:03:57.032Z,29.27
2018-09-05T15:06:27.563Z,29.22
2018-09-05T15:08:58.709Z,29.00
2018-09-05T15:11:28.562Z,29.06
2018-09-05T15:13:58.897Z,29.09
2018-09-05T15:16:29.222Z,28.62
2018-09-05T15:18:58.928Z,28.38
2018-09-05T15:21:29.411Z,28.28
2018-09-05T15:24:00.199Z,28.37
2018-09-05T15:26:32.462Z,28.32
2018-09-05T15:29:02.697Z,28.25
2018-09-05T15:31:32.354Z,28.22
2018-09-05T15:34:02.731Z,28.19
2018-09-05T15:36:34.472Z,28.09
2018-09-05T15:39:04.460Z,27.92
2018-09-05T15:41:34.220Z,27.85
2018-09-05T15:44:03.474Z,27.79
2018-09-05T15:46:39.483Z,27.67
2018-09-05T15:49:14.820Z,27.98
2018-09-05T15:51:54.790Z,27.76
2018-09-05T15:54:30.998Z,27.67
2018-09-05T15:57:07.354Z,27.58
2018-09-05T15:59:44.014Z,27.55
2018-09-05T16:02:20.448Z,27.41
2018-09-05T16:04:56.352Z,27.37
2018-09-05T16:07:31.944Z,27.33
2018-09-05T16:10:09.012Z,27.35
2018-09-05T16:12:45.108Z,27.34
2018-09-05T16:15:22.128Z,27.24
2018-09-05T16:17:53.058Z,27.21
2018-09-05T16:20:23.385Z,27.14
2018-09-05T16:22:54.117Z,27.04
2018-09-05T16:25:25.262Z,27.15
2018-09-05T16:27:54.832Z,27.13
2018-09-05T16:30:26.167Z,27.15
2018-09-05T16:32:56.486Z,27.09
2018-09-05T16:35:27.633Z,27.04
2018-09-05T16:37:58.280Z,27.15
2018-09-05T16:40:28.767Z,27.15
2018-09-05T16:43:03.035Z,26.97
2018-09-05T16:45:33.662Z,27.20
2018-09-05T16:48:04.638Z,27.16
2018-09-05T16:50:33.940Z,27.14
2018-09-05T16:53:05.032Z,27.10
2018-09-05T16:55:35.119Z,27.05
2018-09-05T16:58:05.988Z,26.92
2018-09-05T17:00:36.326Z,27.01
2018-09-05T17:03:05.925Z,26.81
2018-09-05T17:05:36.402Z,26.76
2018-09-05T17:08:07.856Z,26.76
2018-09-05T17:10:37.200Z,26.71
2018-09-05T17:13:09.713Z,26.64
2018-09-05T17:15:44.360Z,26.56
2018-09-05T17:18:15.250Z,26.35
2018-09-05T17:20:45.368Z,26.21
2018-09-05T17:23:15.075Z,26.20
2018-09-05T17:25:44.314Z,26.05
2018-09-05T17:28:13.398Z,26.01
2018-09-05T17:30:44.028Z,26.05
2018-09-05T17:33:14.760Z,26.02
2018-09-05T17:35:43.994Z,25.96
2018-09-05T17:38:13.270Z,25.87
2018-09-05T17:40:42.384Z,25.77
2018-09-05T17:43:11.482Z,25.71
2018-09-05T17:45:40.652Z,25.74
2018-09-05T17:48:09.595Z,25.54
2018-09-05T17:50:38.520Z,25.27
2018-09-05T17:53:07.611Z,25.17
2018-09-05T17:55:36.978Z,24.98
2018-09-05T17:58:06.076Z,24.78
2018-09-05T18:00:35.621Z,24.86
2018-09-05T18:03:04.635Z,24.96
2018-09-05T18:05:34.127Z,25.01
2018-09-05T18:08:03.202Z,24.98
2018-09-05T18:10:33.158Z,25.05
2018-09-05T18:13:02.241Z,24.86
2018-09-05T18:15:32.259Z,24.89
2018-09-05T18:18:01.515Z,24.67
2018-09-05T18:20:30.971Z,24.81
2018-09-05T18:22:59.946Z,24.76
2018-09-05T18:25:29.131Z,24.80
2018-09-05T18:27:58.271Z,24.79
2018-09-05T18:30:27.325Z,24.49
2018-09-05T18:32:56.469Z,24.47
2018-09-05T18:35:25.747Z,24.57
2018-09-05T18:37:54.707Z,24.53
2018-09-05T18:40:23.923Z,24.50
2018-09-05T18:42:53.022Z,24.42
2018-09-05T18:45:22.127Z,24.43
2018-09-05T18:47:51.185Z,24.46
2018-09-05T18:50:20.392Z,24.53
2018-09-05T18:52:53.760Z,24.36
2018-09-05T18:55:23.635Z,24.35
2018-09-05T18:57:52.728Z,24.32
2018-09-05T19:00:21.859Z,24.37
2018-09-05T19:02:52.142Z,24.36
2018-09-05T19:05:21.247Z,24.33
2018-09-05T19:07:50.414Z,24.24
2018-09-05T19:10:19.662Z,24.13
2018-09-05T19:12:49.142Z,23.91
2018-09-05T19:15:18.290Z,23.80
2018-09-05T19:17:47.590Z,23.58
2018-09-05T19:20:18.091Z,23.48
2018-09-05T19:22:47.240Z,23.42
2018-09-05T19:25:16.434Z,23.17
2018-09-05T19:27:45.552Z,22.98
2018-09-05T19:30:14.635Z,22.55
2018-09-05T19:32:43.738Z,22.86
2018-09-05T19:35:12.687Z,22.82
2018-09-05T19:37:42.162Z,22.56
2018-09-05T19:40:11.266Z,22.50
2018-09-05T19:42:40.788Z,22.45
2018-09-05T19:45:10.028Z,22.41
2018-09-05T19:47:39.278Z,22.68
2018-09-05T19:50:08.345Z,22.76
2018-09-05T19:52:37.597Z,22.79
2018-09-05T19:55:06.820Z,22.64
2018-09-05T19:57:35.930Z,22.46
2018-09-05T20:00:05.294Z,22.65
2018-09-05T20:02:34.509Z,22.57
2018-09-05T20:05:03.883Z,22.66
2018-09-05T20:07:33.572Z,22.58
2018-09-05T20:10:02.864Z,22.52
2018-09-05T20:12:31.898Z,22.47
2018-09-05T20:15:01.025Z,22.37
2018-09-05T20:17:30.419Z,22.37
2018-09-05T20:19:59.682Z,22.28
2018-09-05T20:22:29.446Z,22.18
2018-09-05T20:24:58.437Z,22.02
2018-09-05T20:27:27.719Z,21.86
2018-09-05T20:29:57.404Z,21.97
2018-09-05T20:32:26.511Z,21.91
2018-09-05T20:34:55.668Z,21.92
2018-09-05T20:37:24.725Z,21.85
2018-09-05T20:39:53.846Z,21.79
2018-09-05T20:42:22.976Z,21.58
2018-09-05T20:44:52.399Z,21.71
2018-09-05T20:47:21.520Z,21.34
2018-09-05T20:49:57.546Z,21.41
2018-09-05T20:52:26.667Z,21.57
2018-09-05T20:54:55.653Z,21.37
2018-09-05T20:57:25.135Z,21.47
2018-09-05T20:59:54.989Z,21.44
2018-09-05T21:02:24.096Z,21.31
2018-09-05T21:04:53.355Z,21.18
2018-09-05T21:07:22.628Z,21.02
2018-09-05T21:09:51.575Z,21.18
2018-09-05T21:12:20.871Z,21.18
2018-09-05T21:14:49.822Z,20.98
2018-09-05T21:17:19.233Z,20.95
2018-09-05T21:19:49.624Z,21.00
2018-09-05T21:22:19.221Z,20.92
2018-09-05T21:24:49.447Z,20.98
2018-09-05T21:27:18.777Z,20.93
2018-09-05T21:29:48.282Z,21.04
2018-09-05T21:32:17.320Z,21.02
2018-09-05T21:34:46.408Z,21.00
2018-09-05T21:37:15.518Z,20.85
2018-09-05T21:39:44.467Z,20.72
2018-09-05T21:42:13.448Z,20.48
2018-09-05T21:44:42.413Z,20.70
2018-09-05T21:47:11.726Z,20.69
2018-09-05T21:49:40.784Z,20.65
2018-09-05T21:52:09.960Z,20.76
2018-09-05T21:54:39.174Z,20.69
2018-09-05T21:57:08.695Z,20.45
2018-09-05T21:59:37.990Z,20.44
2018-09-05T22:02:07.061Z,20.52
2018-09-05T22:04:36.018Z,20.49
2018-09-05T22:07:05.628Z,20.39
2018-09-05T22:09:35.139Z,20.50
2018-09-05T22:12:04.255Z,20.56
2018-09-05T22:14:33.193Z,20.50
2018-09-05T22:17:02.443Z,20.32
2018-09-05T22:19:31.566Z,20.24
2018-09-05T22:22:00.666Z,20.32
2018-09-05T22:24:30.004Z,20.38
2018-09-05T22:26:59.244Z,20.35
2018-09-05T22:29:28.351Z,20.39
2018-09-05T22:31:57.419Z,20.41
2018-09-05T22:34:26.869Z,20.39
2018-09-05T22:36:56.223Z,19.85
2018-09-05T22:39:25.679Z,20.02
2018-09-05T22:41:55.515Z,19.97
2018-09-05T22:44:35.472Z,20.04
2018-09-05T22:47:15.693Z,20.18
2018-09-05T22:50:01.280Z,20.21
2018-09-05T22:53:45.056Z,20.18
2018-09-05T22:56:29.463Z,20.09
2018-09-05T23:01:13.501Z,20.06
2018-09-05T23:03:56.699Z,19.91
2018-09-05T23:08:44.988Z,19.80
2018-09-05T23:11:56.033Z,19.99
2018-09-05T23:16:39.953Z,20.00
2018-09-05T23:19:31.916Z,19.88
2018-09-05T23:22:01.392Z,20.05
2018-09-05T23:24:30.547Z,20.16
2018-09-05T23:27:00.084Z,20.21
2018-09-05T23:29:29.162Z,20.10
2018-09-05T23:31:58.283Z,20.10
2018-09-05T23:34:27.531Z,20.06
2018-09-05T23:36:56.652Z,20.14
2018-09-05T23:39:26.424Z,20.10
2018-09-05T23:41:55.683Z,20.09
2018-09-05T23:44:24.727Z,20.07
2018-09-05T23:46:53.872Z,20.06
2018-09-05T23:49:23.020Z,20.05
2018-09-05T23:51:52.464Z,20.07
2018-09-05T23:54:21.613Z,19.77
2018-09-05T23:56:50.893Z,19.67
2018-09-05T23:59:20.631Z,19.76
